GW3437 Weather Reports


Display with metric or nautical units.
time (UTC)temp
F
wind
direction
speed
MPH
gust
MPH
rain 1hr
in
rain 24hr
in
rain mn
in
humidity
%
barometer
mb
20240520054538 76 58 1.0 2.0 0.00 0.00 0.00 81 1009.0
20240520054036 76 105 1.0 3.0 0.00 0.00 0.00 81 1008.8
20240520053535 76 26 1.0 3.0 0.00 0.00 0.00 81 1008.6
20240520053033 76 199 2.0 9.0 0.00 0.00 0.00 82 1008.0
20240520052531 76 208 2.0 10.0 0.00 0.00 0.00 81 1008.1
20240520052031 76 190 2.0 8.0 0.00 0.00 0.00 82 1007.7
20240520051529 76 195 1.0 4.0 0.00 0.00 0.00 82 1007.8
20240520051028 76 212 3.0 8.0 0.00 0.00 0.00 82 1007.8
20240520050526 76 212 3.0 6.0 0.00 0.00 0.00 82 1008.0
20240520050025 76 200 6.0 11.0 0.00 0.00 0.00 83 1007.8
20240520045524 75 150 3.0 10.0 0.00 0.17 0.17 83 1007.9
20240520045024 75 74 2.0 4.0 0.00 0.17 0.17 84 1007.7
20240520044522 74 185 8.0 10.0 0.00 0.17 0.17 85 1008.1
20240520044020 74 116 1.0 8.0 0.00 0.17 0.17 86 1008.1
20240520043519 73 168 3.0 3.0 0.00 0.17 0.17 86 1008.2
20240520043019 73 99 2.0 4.0 0.00 0.17 0.17 86 1008.8
20240520042518 73 163 3.0 6.0 0.00 0.17 0.17 84 1008.3
20240520042016 72 185 1.0 8.0 0.00 0.17 0.17 83 1008.3
20240520041514 73 357 3.0 3.0 0.00 0.17 0.17 81 1008.5
20240520041013 73 102 2.0 6.0 0.00 0.17 0.17 82 1008.8
20240520040511 73 183 3.0 11.0 0.00 0.17 0.17 82 1008.8
20240520040010 72 201 3.0 7.0 0.00 0.17 0.17 82 1009.0
20240520035510 71 148 1.0 16.0 0.00 0.17 0.17 81 1008.9
20240520035009 71 337 1.0 8.0 0.00 0.17 0.17 80 1008.8
20240520034507 71 203 5.0 7.0 0.00 0.17 0.17 84 1008.7
20240520034006 71 165 2.0 6.0 0.04 0.17 0.17 82 1007.9
20240520033504 71 220 5.0 10.0 0.04 0.17 0.17 88 1008.0
20240520033002 71 212 4.0 19.0 0.11 0.16 0.16 86 1008.3
20240520032501 71 107 3.0 6.0 0.23 0.16 0.16 84 1008.9
20240520032000 73 162 2.0 14.0 0.30 0.15 0.15 76 1010.2
20240520031455 76 221 4.0 6.0 0.37 0.13 0.13 91 1011.0
20240520030954 76 204 4.0 6.0 0.35 0.09 0.09 88 1011.1
20240520030453 77 177 2.0 6.0 0.28 0.06 0.06 86 1011.1
20240520025951 79 162 1.0 1.0 0.23 0.03 0.03 82 1010.6
20240520025449 80 100 0.0 0.0 0.04 0.00 0.00 77 1010.8
20240520024949 81 137 0.0 0.0 0.00 0.00 0.00 73 1010.9
20240520024448 82 92 0.0 1.0 0.00 0.00 0.00 69 1010.2
20240520023947 82 74 0.0 1.0 0.00 0.00 0.00 67 1010.0
20240520023446 82 138 0.0 2.0 0.00 0.00 0.00 66 1009.7
20240520022944 82 65 3.0 6.0 0.00 0.00 0.00 66 1009.2
20240520022444 82 51 5.0 7.0 0.00 0.00 0.00 66 1008.5
20240520021942 82 127 1.0 6.0 0.00 0.00 0.00 66 1007.9
20240520021442 82 50 2.0 3.0 0.00 0.00 0.00 66 1009.4
20240520020940 83 56 3.0 4.0 0.00 0.00 0.00 66 1009.5
20240520020439 83 29 2.0 4.0 0.00 0.00 0.00 65 1009.3
20240520015937 83 348 1.0 3.0 0.00 0.00 0.00 65 1009.5
20240520015436 83 101 1.0 3.0 0.00 0.00 0.00 65 1009.5
20240520014935 83 103 0.0 4.0 0.00 0.00 0.00 65 1009.4
20240520014435 83 184 0.0 2.0 0.00 0.00 0.00 64 1009.5
20240520013933 83 207 1.0 3.0 0.00 0.00 0.00 64 1009.4
20240520013432 83 318 2.0 3.0 0.00 0.00 0.00 64 1008.9
20240520012932 83 265 0.0 3.0 0.00 0.00 0.00 64 1007.9
20240520012430 83 133 0.0 6.0 0.00 0.00 0.00 64 1008.3
20240520011928 84 31 1.0 2.0 0.00 0.00 0.00 63 1008.1
20240520011427 84 60 1.0 6.0 0.00 0.00 0.00 63 1008.1
20240520010927 84 114 1.0 4.0 0.00 0.00 0.00 63 1008.3
20240520010425 84 210 2.0 4.0 0.00 0.00 0.00 63 1007.9
20240520005924 84 138 1.0 3.0 0.00 0.00 0.00 62 1008.0
20240520005422 84 219 2.0 3.0 0.00 0.00 0.00 62 1008.3
20240520004920 84 252 2.0 6.0 0.00 0.00 0.00 62 1008.1
20240520004418 84 195 4.0 8.0 0.00 0.00 0.00 62 1007.7
20240520003918 84 186 2.0 4.0 0.00 0.00 0.00 62 1007.9
20240520003417 84 171 4.0 15.0 0.00 0.00 0.00 61 1007.9
20240520002917 84 183 4.0 8.0 0.00 0.00 0.00 62 1008.1
20240520002415 85 211 5.0 11.0 0.00 0.00 0.00 61 1007.9
20240520001914 85 215 3.0 9.0 0.00 0.00 0.00 61 1007.6
20240520001413 85 193 4.0 10.0 0.00 0.00 0.00 60 1007.7
20240520000913 85 185 5.0 15.0 0.00 0.00 0.00 60 1007.6
20240520000411 85 138 5.0 7.0 0.00 0.00 0.00 60 1007.4
20240519235910 85 199 5.0 15.0 0.00 0.00 0.00 59 1007.5
20240519235408 86 227 3.0 8.0 0.00 0.00 0.00 59 1007.4
20240519234906 86 112 5.0 16.0 0.00 0.00 0.00 59 1007.1
20240519234406 86 194 6.0 13.0 0.00 0.00 0.00 59 1007.1
20240519233905 86 197 7.0 10.0 0.00 0.00 0.00 59 1007.3
20240519233403 86 125 6.0 8.0 0.00 0.00 0.00 59 1007.2
20240519232902 86 31 4.0 9.0 0.00 0.00 0.00 58 1007.4
20240519232401 86 189 3.0 7.0 0.00 0.00 0.00 58 1007.6
20240519231901 87 213 7.0 11.0 0.00 0.00 0.00 58 1007.6
20240519231400 87 202 6.0 15.0 0.00 0.00 0.00 58 1007.9
20240519230900 87 136 10.0 17.0 0.00 0.00 0.00 58 1007.7
20240519230359 88 93 4.0 11.0 0.00 0.00 0.00 56 1008.0
20240519225858 88 165 3.0 18.0 0.00 0.00 0.00 56 1007.8
20240519225357 88 140 3.0 7.0 0.00 0.00 0.00 56 1007.8
20240519224856 89 182 7.0 14.0 0.00 0.00 0.00 54 1007.4
20240519224355 89 197 8.0 14.0 0.00 0.00 0.00 53 1007.6
20240519223855 90 341 4.0 8.0 0.00 0.00 0.00 53 1007.5
20240519223354 89 225 3.0 11.0 0.00 0.00 0.00 54 1007.7
20240519222853 89 180 15.0 23.0 0.00 0.00 0.00 54 1007.8
20240519222352 90 246 3.0 8.0 0.00 0.00 0.00 53 1007.8
20240519221849 89 209 5.0 13.0 0.00 0.00 0.00 54 1007.9
20240519221349 90 255 9.0 16.0 0.00 0.00 0.00 53 1008.1
20240519220847 91 200 13.0 19.0 0.00 0.00 0.00 53 1008.2
20240519220346 90 183 8.0 19.0 0.00 0.00 0.00 54 1008.2
20240519215845 90 136 6.0 8.0 0.00 0.00 0.00 53 1008.3
20240519215345 90 169 5.0 13.0 0.00 0.00 0.00 53 1008.5
20240519214843 91 223 9.0 17.0 0.00 0.00 0.00 54 1008.5
20240519214343 91 221 7.0 13.0 0.00 0.00 0.00 52 1008.6
20240519213841 91 196 8.0 15.0 0.00 0.00 0.00 52 1008.7
20240519213340 91 234 6.0 13.0 0.00 0.00 0.00 52 1008.7
20240519212838 91 201 4.0 10.0 0.00 0.00 0.00 51 1008.9
20240519212338 91 190 9.0 18.0 0.00 0.00 0.00 52 1009.1
20240519211837 91 182 2.0 8.0 0.00 0.00 0.00 52 1009.1
20240519211336 90 211 11.0 14.0 0.00 0.00 0.00 52 1009.3
20240519210835 90 312 2.0 9.0 0.00 0.00 0.00 52 1009.3
20240519210334 92 213 5.0 14.0 0.00 0.00 0.00 50 1009.4
20240519205832 90 198 2.0 10.0 0.00 0.00 0.00 52 1009.5
20240519205331 91 59 2.0 13.0 0.00 0.00 0.00 52 1009.7
20240519204829 91 253 5.0 18.0 0.00 0.00 0.00 52 1009.8
20240519204328 91 204 7.0 10.0 0.00 0.00 0.00 51 1009.7
20240519203827 91 191 11.0 14.0 0.00 0.00 0.00 52 1009.9
20240519203327 91 37 2.0 6.0 0.00 0.00 0.00 51 1010.0
20240519202826 91 182 10.0 19.0 0.00 0.00 0.00 52 1010.1
20240519202325 91 169 2.0 9.0 0.00 0.00 0.00 51 1010.0
20240519201825 91 268 4.0 10.0 0.00 0.00 0.00 52 1010.1
20240519201324 91 275 4.0 11.0 0.00 0.00 0.00 52 1010.3
20240519200823 91 192 8.0 10.0 0.00 0.00 0.00 52 1010.5
20240519200322 90 229 7.0 16.0 0.00 0.00 0.00 54 1010.4
20240519195822 90 206 9.0 17.0 0.00 0.00 0.00 52 1010.4
20240519195321 91 242 4.0 9.0 0.00 0.00 0.00 52 1010.5
20240519194819 90 202 2.0 13.0 0.00 0.00 0.00 52 1010.5
20240519194318 91 181 5.0 9.0 0.00 0.00 0.00 52 1010.6
20240519193816 91 317 4.0 8.0 0.00 0.00 0.00 52 1010.6
20240519193315 91 151 4.0 8.0 0.00 0.00 0.00 53 1010.9
20240519192814 90 187 6.0 11.0 0.00 0.00 0.00 53 1010.8
20240519192313 91 154 7.0 14.0 0.00 0.00 0.00 54 1011.0
20240519191812 91 218 3.0 8.0 0.00 0.00 0.00 53 1011.0
20240519191311 90 203 3.0 16.0 0.00 0.00 0.00 54 1011.2
20240519190810 90 202 4.0 13.0 0.00 0.00 0.00 53 1011.2
20240519190309 91 155 2.0 4.0 0.00 0.00 0.00 53 1011.4
20240519185808 90 217 4.0 11.0 0.00 0.00 0.00 54 1011.3
20240519185307 91 236 3.0 6.0 0.00 0.00 0.00 52 1011.3
20240519184805 90 183 8.0 13.0 0.00 0.00 0.00 53 1011.3
20240519184303 90 161 4.0 7.0 0.00 0.00 0.00 53 1011.3
20240519183802 89 204 4.0 17.0 0.00 0.00 0.00 54 1011.7
20240519183301 89 222 11.0 17.0 0.00 0.00 0.00 54 1011.7
20240519182801 90 182 4.0 9.0 0.00 0.00 0.00 54 1011.7
20240519182259 89 160 7.0 13.0 0.00 0.00 0.00 55 1012.1
20240519181758 90 193 6.0 11.0 0.00 0.00 0.00 53 1012.0
20240519181258 90 41 2.0 13.0 0.00 0.00 0.00 54 1012.1
20240519180758 89 188 7.0 11.0 0.00 0.00 0.00 53 1012.1
20240519180257 90 267 6.0 15.0 0.00 0.00 0.00 54 1012.5
20240519175755 90 23 2.0 9.0 0.00 0.00 0.00 53 1012.2
20240519175255 90 244 3.0 9.0 0.00 0.00 0.00 53 1012.5
20240519174753 90 165 8.0 13.0 0.00 0.00 0.00 54 1012.7
20240519174253 89 153 3.0 10.0 0.00 0.00 0.00 54 1012.5
20240519173752 88 193 9.0 13.0 0.00 0.00 0.00 55 1012.7
20240519173251 87 209 6.0 16.0 0.00 0.00 0.00 56 1013.0
20240519172750 89 233 11.0 14.0 0.00 0.00 0.00 54 1013.0
20240519172249 88 224 5.0 9.0 0.00 0.00 0.00 55 1013.0
20240519171749 88 175 8.0 11.0 0.00 0.00 0.00 55 1013.1
20240519171248 87 165 4.0 14.0 0.00 0.00 0.00 55 1013.2
20240519170748 88 62 8.0 14.0 0.00 0.00 0.00 55 1013.2
20240519170247 87 174 9.0 14.0 0.00 0.00 0.00 56 1013.3
20240519165746 87 188 12.0 19.0 0.00 0.00 0.00 57 1013.4
20240519165245 88 232 4.0 13.0 0.00 0.00 0.00 55 1013.1
20240519164745 87 281 4.0 8.0 0.00 0.00 0.00 56 1013.1
20240519164242 87 186 6.0 10.0 0.00 0.00 0.00 56 1013.5
20240519163742 88 230 5.0 13.0 0.00 0.00 0.00 56 1013.3
20240519163242 88 210 3.0 13.0 0.00 0.00 0.00 57 1013.3
20240519162741 86 245 10.0 15.0 0.00 0.00 0.00 59 1013.3
20240519162240 86 78 4.0 8.0 0.00 0.00 0.00 58 1013.2
20240519161738 86 186 11.0 17.0 0.00 0.00 0.00 58 1013.2
20240519161236 86 202 4.0 9.0 0.00 0.00 0.00 59 1013.3
20240519160734 87 164 8.0 14.0 0.00 0.00 0.00 58 1013.5
20240519160234 87 213 2.0 8.0 0.00 0.00 0.00 57 1013.5
20240519155734 85 156 4.0 9.0 0.00 0.00 0.00 61 1013.5
20240519155234 84 198 7.0 16.0 0.00 0.00 0.00 61 1013.7
20240519154733 85 163 11.0 17.0 0.00 0.00 0.00 60 1013.7
20240519154232 86 187 5.0 11.0 0.00 0.00 0.00 60 1013.9
20240519153730 85 176 2.0 8.0 0.00 0.00 0.00 60 1013.8
20240519153229 85 45 3.0 7.0 0.00 0.00 0.00 60 1013.9
20240519152727 85 185 4.0 8.0 0.00 0.00 0.00 61 1014.1
20240519152227 85 190 3.0 8.0 0.00 0.00 0.00 59 1013.8
20240519151726 84 213 3.0 6.0 0.00 0.00 0.00 61 1014.1
20240519151224 83 207 5.0 15.0 0.00 0.00 0.00 63 1014.1
20240519150722 82 199 4.0 7.0 0.00 0.00 0.00 64 1013.9
20240519150222 83 167 4.0 8.0 0.00 0.00 0.00 63 1014.2
20240519145723 84 216 2.0 6.0 0.00 0.00 0.00 61 1014.3
20240519145222 83 247 2.0 4.0 0.00 0.00 0.00 62 1014.3
20240519144720 82 235 4.0 11.0 0.00 0.00 0.00 63 1014.1
20240519144219 81 137 2.0 4.0 0.00 0.00 0.00 65 1014.3
20240519143718 81 350 4.0 14.0 0.00 0.00 0.00 65 1014.4
20240519143216 80 202 4.0 9.0 0.00 0.00 0.00 65 1014.4
20240519142716 80 185 3.0 11.0 0.00 0.00 0.00 66 1014.4
20240519142215 80 270 2.0 8.0 0.00 0.00 0.00 66 1014.2
20240519141713 80 228 3.0 15.0 0.00 0.00 0.00 67 1014.2
20240519141213 80 185 2.0 6.0 0.00 0.00 0.00 66 1014.3
20240519140712 80 245 4.0 7.0 0.00 0.00 0.00 66 1014.2
20240519140211 78 139 4.0 9.0 0.00 0.00 0.00 68 1014.6
20240519135711 78 197 1.0 10.0 0.00 0.00 0.00 68 1014.2
20240519135210 78 198 6.0 9.0 0.00 0.00 0.00 67 1014.6
20240519134709 78 186 4.0 9.0 0.00 0.00 0.00 68 1014.6
20240519134208 78 185 2.0 7.0 0.00 0.00 0.00 68 1014.4
20240519133708 77 202 4.0 6.0 0.00 0.00 0.00 69 1014.3
20240519133205 77 108 3.0 8.0 0.00 0.00 0.00 69 1014.2
20240519132704 77 204 2.0 4.0 0.00 0.00 0.00 69 1013.8
20240519132202 76 130 2.0 11.0 0.00 0.00 0.00 71 1014.2
20240519131700 77 254 2.0 6.0 0.00 0.00 0.00 70 1014.4
20240519131159 75 228 4.0 6.0 0.00 0.00 0.00 72 1014.2
20240519130657 75 175 4.0 9.0 0.00 0.00 0.00 73 1014.3
20240519130156 75 212 4.0 7.0 0.00 0.00 0.00 73 1014.3
20240519125656 74 115 3.0 4.0 0.00 0.00 0.00 74 1014.1
20240519125155 74 208 2.0 7.0 0.00 0.00 0.00 75 1014.2
20240519124654 73 181 3.0 4.0 0.00 0.00 0.00 76 1014.1
20240519124153 73 189 1.0 3.0 0.00 0.00 0.00 76 1014.2
20240519123651 73 129 1.0 2.0 0.00 0.00 0.00 77 1014.2
20240519123150 72 177 1.0 2.0 0.00 0.00 0.00 77 1014.4
20240519122649 72 194 2.0 6.0 0.00 0.00 0.00 78 1014.4
20240519122146 71 222 2.0 3.0 0.00 0.00 0.00 79 1014.3
20240519121644 71 183 1.0 7.0 0.00 0.00 0.00 79 1014.3
20240519121143 71 238 1.0 2.0 0.00 0.00 0.00 80 1014.2
20240519120641 70 41 1.0 6.0 0.00 0.00 0.00 82 1014.1
20240519120139 70 142 1.0 3.0 0.00 0.00 0.00 82 1013.9
20240519115638 69 192 1.0 2.0 0.00 0.00 0.00 83 1014.1
20240519115137 69 17 1.0 1.0 0.00 0.00 0.00 83 1014.2
20240519114635 69 191 1.0 2.0 0.00 0.00 0.00 83 1014.0
20240519114135 69 18 0.0 1.0 0.00 0.00 0.00 83 1013.9
20240519113633 69 90 0.0 0.0 0.00 0.00 0.00 83 1014.0
20240519113132 69 168 0.0 2.0 0.00 0.00 0.00 83 1014.1
20240519112631 68 313 1.0 2.0 0.00 0.00 0.00 84 1014.0
20240519112129 68 92 0.0 1.0 0.00 0.00 0.00 84 1014.0
20240519111627 68 146 0.0 1.0 0.00 0.00 0.00 85 1014.1
20240519111125 68 172 0.0 1.0 0.00 0.00 0.00 85 1014.1
20240519110624 67 45 0.0 1.0 0.00 0.00 0.00 86 1014.3
20240519110124 67 169 0.0 1.0 0.00 0.00 0.00 86 1014.3
20240519105623 67 71 0.0 1.0 0.00 0.00 0.00 87 1014.0
20240519105123 67 134 0.0 0.0 0.00 0.00 0.00 87 1013.9
20240519104620 67 133 0.0 1.0 0.00 0.00 0.00 87 1013.9
20240519104120 67 70 0.0 1.0 0.00 0.00 0.00 87 1014.0
20240519103620 67 127 0.0 1.0 0.00 0.00 0.00 87 1013.9
20240519103118 67 76 0.0 0.0 0.00 0.00 0.00 87 1013.8
20240519102616 67 76 0.0 0.0 0.00 0.00 0.00 86 1013.8
20240519102115 68 87 0.0 1.0 0.00 0.00 0.00 86 1013.7
20240519101615 68 72 0.0 0.0 0.00 0.00 0.00 86 1013.8
20240519101114 68 79 0.0 0.0 0.00 0.00 0.00 86 1013.7
20240519100613 67 79 0.0 0.0 0.00 0.00 0.00 86 1013.6
20240519100111 67 80 0.0 0.0 0.00 0.00 0.00 86 1013.8
20240519095609 68 80 0.0 1.0 0.00 0.00 0.00 86 1013.6
20240519095109 68 79 0.0 0.0 0.00 0.00 0.00 86 1013.6
20240519094607 68 81 0.0 0.0 0.00 0.00 0.00 86 1013.6
20240519094105 68 80 0.0 0.0 0.00 0.00 0.00 85 1013.5
20240519093606 68 99 0.0 0.0 0.00 0.00 0.00 85 1013.5
20240519093105 68 92 0.0 0.0 0.00 0.00 0.00 85 1013.7
20240519092604 68 83 0.0 0.0 0.00 0.00 0.00 86 1013.5
20240519092102 67 121 0.0 1.0 0.00 0.00 0.00 87 1013.6
20240519091601 67 95 0.0 0.0 0.00 0.00 0.00 87 1013.7
20240519091100 67 95 0.0 0.0 0.00 0.00 0.00 86 1013.6
20240519090600 67 96 0.0 0.0 0.00 0.00 0.00 86 1013.8
20240519090059 67 112 0.0 0.0 0.00 0.00 0.00 87 1013.7
20240519085557 67 112 0.0 0.0 0.00 0.00 0.00 86 1013.7
20240519085055 67 114 0.0 0.0 0.00 0.00 0.00 85 1013.7
20240519084555 68 114 0.0 0.0 0.00 0.00 0.00 85 1013.7
20240519084054 68 114 0.0 0.0 0.00 0.00 0.00 84 1013.6
20240519083552 68 94 0.0 0.0 0.00 0.00 0.00 83 1013.6
20240519083052 69 88 0.0 0.0 0.00 0.00 0.00 82 1013.6
20240519082551 69 89 0.0 0.0 0.00 0.00 0.00 81 1013.5
20240519082049 69 89 0.0 0.0 0.00 0.00 0.00 81 1013.4
20240519081549 69 94 0.0 1.0 0.00 0.00 0.00 81 1013.6
20240519081049 69 231 0.0 1.0 0.00 0.00 0.00 81 1013.5
20240519080548 69 171 0.0 1.0 0.00 0.00 0.00 81 1013.6
20240519080048 69 106 0.0 1.0 0.00 0.00 0.00 81 1013.6
20240519075547 69 70 0.0 1.0 0.00 0.00 0.00 81 1013.5
20240519075045 69 110 0.0 0.0 0.00 0.00 0.00 81 1013.4
20240519074543 70 93 0.0 1.0 0.00 0.00 0.00 81 1013.6
20240519074043 69 213 0.0 0.0 0.00 0.00 0.00 81 1013.7
20240519073541 69 231 0.0 1.0 0.00 0.00 0.00 81 1013.6
20240519073041 69 119 0.0 0.0 0.00 0.00 0.00 82 1013.6
20240519072540 69 121 0.0 0.0 0.00 0.00 0.00 82 1013.8
20240519072040 69 140 0.0 0.0 0.00 0.00 0.00 82 1013.9
20240519071540 69 81 0.0 0.0 0.00 0.00 0.00 83 1013.8
20240519071038 69 81 0.0 0.0 0.00 0.00 0.00 82 1013.5
20240519070537 70 81 0.0 0.0 0.00 0.00 0.00 82 1013.3
20240519070037 70 80 0.0 0.0 0.00 0.00 0.00 81 1013.3
20240519065535 70 85 0.0 0.0 0.00 0.00 0.00 81 1013.4
20240519065035 70 86 0.0 0.0 0.00 0.00 0.00 81 1013.5
20240519064534 70 87 0.0 0.0 0.00 0.00 0.00 80 1013.3
20240519064033 71 85 0.0 0.0 0.00 0.00 0.00 80 1013.4
20240519063532 71 87 0.0 0.0 0.00 0.00 0.00 79 1013.7
20240519063031 71 102 0.0 0.0 0.00 0.00 0.00 79 1013.6
20240519062530 71 117 0.0 0.0 0.00 0.00 0.00 78 1013.7
20240519062028 72 83 0.0 0.0 0.00 0.00 0.00 77 1013.9
20240519061526 72 118 0.0 0.0 0.00 0.00 0.00 76 1013.7
20240519061025 72 174 0.0 1.0 0.00 0.00 0.00 76 1013.6
20240519060524 73 178 0.0 1.0 0.00 0.00 0.00 75 1013.6
20240519060022 73 146 0.0 0.0 0.00 0.00 0.00 75 1013.7
20240519055521 73 144 0.0 1.0 0.00 0.00 0.00 75 1013.8
20240519055020 73 135 0.0 0.0 0.00 0.00 0.00 75 1013.8